sensor_id;sensor_type;location;lat;lon;timestamp;P1;durP1;ratioP1;P2;durP2;ratioP2
37889;SDS011;23730;49.120;12.214;2022-07-29T05:39:44;6.20;;;2.80;;
37889;SDS011;23730;49.120;12.214;2022-07-29T05:44:52;7.93;;;2.70;;
37889;SDS011;23730;49.120;12.214;2022-07-29T05:49:54;8.75;;;3.03;;
37889;SDS011;23730;49.120;12.214;2022-07-29T05:54:56;6.45;;;2.75;;
37889;SDS011;23730;49.120;12.214;2022-07-29T05:59:58;9.43;;;3.25;;
37889;SDS011;23730;49.120;12.214;2022-07-29T06:05:00;8.60;;;2.78;;
37889;SDS011;23730;49.120;12.214;2022-07-29T06:10:02;9.68;;;3.30;;
37889;SDS011;23730;49.120;12.214;2022-07-29T06:15:05;10.95;;;3.00;;
37889;SDS011;23730;49.120;12.214;2022-07-29T06:20:08;6.22;;;2.83;;
37889;SDS011;23730;49.120;12.214;2022-07-29T06:25:12;11.43;;;3.45;;
37889;SDS011;23730;49.120;12.214;2022-07-29T06:30:14;10.85;;;2.92;;
37889;SDS011;23730;49.120;12.214;2022-07-29T06:35:16;8.77;;;3.10;;
37889;SDS011;23730;49.120;12.214;2022-07-29T06:40:42;9.30;;;2.90;;
37889;SDS011;23730;49.120;12.214;2022-07-29T06:46:04;7.50;;;2.50;;
37889;SDS011;23730;49.120;12.214;2022-07-29T06:51:09;7.95;;;3.13;;
37889;SDS011;23730;49.120;12.214;2022-07-29T06:56:12;12.85;;;3.03;;
37889;SDS011;23730;49.120;12.214;2022-07-29T07:01:15;8.50;;;2.78;;
37889;SDS011;23730;49.120;12.214;2022-07-29T07:06:17;11.43;;;3.17;;
37889;SDS011;23730;49.120;12.214;2022-07-29T07:11:19;10.68;;;3.20;;
37889;SDS011;23730;49.120;12.214;2022-07-29T07:16:22;7.53;;;3.05;;
37889;SDS011;23730;49.120;12.214;2022-07-29T07:21:24;8.18;;;3.03;;
37889;SDS011;23730;49.120;12.214;2022-07-29T07:26:26;9.98;;;2.85;;
37889;SDS011;23730;49.120;12.214;2022-07-29T07:31:28;7.35;;;3.33;;
37889;SDS011;23730;49.120;12.214;2022-07-29T07:36:30;8.73;;;3.78;;
37889;SDS011;23730;49.120;12.214;2022-07-29T07:41:32;8.70;;;3.50;;
37889;SDS011;23730;49.120;12.214;2022-07-29T07:46:34;12.45;;;3.60;;
37889;SDS011;23730;49.120;12.214;2022-07-29T07:51:38;8.02;;;3.90;;
37889;SDS011;23730;49.120;12.214;2022-07-29T07:56:40;11.50;;;4.07;;
37889;SDS011;23730;49.120;12.214;2022-07-29T08:01:42;7.40;;;3.65;;
37889;SDS011;23730;49.120;12.214;2022-07-29T08:06:56;9.07;;;3.88;;
37889;SDS011;23730;49.120;12.214;2022-07-29T08:11:59;10.57;;;4.47;;
37889;SDS011;23730;49.120;12.214;2022-07-29T08:17:04;8.50;;;3.65;;
37889;SDS011;23730;49.120;12.214;2022-07-29T08:22:06;8.35;;;4.20;;
37889;SDS011;23730;49.120;12.214;2022-07-29T08:27:09;10.27;;;4.20;;
37889;SDS011;23730;49.120;12.214;2022-07-29T08:32:32;9.38;;;4.15;;
37889;SDS011;23730;49.120;12.214;2022-07-29T08:37:54;7.80;;;4.07;;
37889;SDS011;23730;49.120;12.214;2022-07-29T08:42:58;9.18;;;4.47;;
37889;SDS011;23730;49.120;12.214;2022-07-29T08:48:07;7.88;;;4.35;;
37889;SDS011;23730;49.120;12.214;2022-07-29T08:53:11;11.48;;;4.55;;
37889;SDS011;23730;49.120;12.214;2022-07-29T08:58:18;8.50;;;3.85;;
37889;SDS011;23730;49.120;12.214;2022-07-29T09:03:29;9.55;;;3.70;;
37889;SDS011;23730;49.120;12.214;2022-07-29T09:08:33;10.70;;;3.63;;
37889;SDS011;23730;49.120;12.214;2022-07-29T09:13:35;6.50;;;3.53;;
37889;SDS011;23730;49.120;12.214;2022-07-29T09:18:39;10.57;;;3.47;;
37889;SDS011;23730;49.120;12.214;2022-07-29T09:29:15;8.27;;;3.42;;
37889;SDS011;23730;49.120;12.214;2022-07-29T09:44:47;7.50;;;4.05;;
37889;SDS011;23730;49.120;12.214;2022-07-29T09:49:55;7.18;;;3.60;;
37889;SDS011;23730;49.120;12.214;2022-07-29T09:55:06;8.27;;;4.20;;
37889;SDS011;23730;49.120;12.214;2022-07-29T10:00:11;7.43;;;3.67;;
37889;SDS011;23730;49.120;12.214;2022-07-29T10:10:27;8.48;;;3.95;;
37889;SDS011;23730;49.120;12.214;2022-07-29T10:15:33;8.63;;;4.00;;
37889;SDS011;23730;49.120;12.214;2022-07-29T10:20:42;7.35;;;4.10;;
37889;SDS011;23730;49.120;12.214;2022-07-29T10:25:45;7.80;;;3.70;;
37889;SDS011;23730;49.120;12.214;2022-07-29T10:30:47;9.25;;;3.70;;
37889;SDS011;23730;49.120;12.214;2022-07-29T10:46:57;7.65;;;4.05;;
37889;SDS011;23730;49.120;12.214;2022-07-29T10:52:07;7.20;;;4.13;;
37889;SDS011;23730;49.120;12.214;2022-07-29T10:57:26;9.20;;;3.95;;
37889;SDS011;23730;49.120;12.214;2022-07-29T11:02:51;7.60;;;3.90;;
37889;SDS011;23730;49.120;12.214;2022-07-29T11:24:14;7.57;;;2.60;;
37889;SDS011;23730;49.120;12.214;2022-07-29T11:29:30;4.53;;;1.95;;
37889;SDS011;23730;49.120;12.214;2022-07-29T11:34:40;8.00;;;1.70;;
37889;SDS011;23730;49.120;12.214;2022-07-29T11:45:06;4.95;;;1.85;;
37889;SDS011;23730;49.120;12.214;2022-07-29T11:50:31;6.93;;;2.00;;
37889;SDS011;23730;49.120;12.214;2022-07-29T11:55:44;4.10;;;1.80;;
37889;SDS011;23730;49.120;12.214;2022-07-29T12:00:52;5.88;;;1.90;;
37889;SDS011;23730;49.120;12.214;2022-07-29T12:05:56;5.65;;;1.90;;
37889;SDS011;23730;49.120;12.214;2022-07-29T12:10:58;5.15;;;2.10;;
37889;SDS011;23730;49.120;12.214;2022-07-29T12:16:02;4.90;;;1.98;;
37889;SDS011;23730;49.120;12.214;2022-07-29T12:21:05;5.30;;;2.20;;
37889;SDS011;23730;49.120;12.214;2022-07-29T12:26:08;6.18;;;2.00;;
37889;SDS011;23730;49.120;12.214;2022-07-29T12:31:26;4.93;;;2.00;;
37889;SDS011;23730;49.120;12.214;2022-07-29T12:36:45;6.40;;;2.22;;
37889;SDS011;23730;49.120;12.214;2022-07-29T12:41:47;6.55;;;2.50;;
37889;SDS011;23730;49.120;12.214;2022-07-29T12:47:03;5.28;;;2.58;;
37889;SDS011;23730;49.120;12.214;2022-07-29T12:57:44;7.05;;;2.17;;
37889;SDS011;23730;49.120;12.214;2022-07-29T13:02:58;5.35;;;2.10;;
37889;SDS011;23730;49.120;12.214;2022-07-29T13:08:12;10.32;;;2.60;;
37889;SDS011;23730;49.120;12.214;2022-07-29T13:13:23;6.07;;;2.40;;
37889;SDS011;23730;49.120;12.214;2022-07-29T13:18:26;4.80;;;2.40;;
37889;SDS011;23730;49.120;12.214;2022-07-29T13:23:33;13.68;;;2.78;;
37889;SDS011;23730;49.120;12.214;2022-07-29T13:28:38;4.68;;;2.03;;
37889;SDS011;23730;49.120;12.214;2022-07-29T13:33:44;5.78;;;2.60;;
37889;SDS011;23730;49.120;12.214;2022-07-29T13:38:46;6.95;;;2.35;;
37889;SDS011;23730;49.120;12.214;2022-07-29T13:43:48;5.50;;;2.17;;
37889;SDS011;23730;49.120;12.214;2022-07-29T13:48:50;7.10;;;1.90;;
37889;SDS011;23730;49.120;12.214;2022-07-29T13:53:52;6.85;;;2.30;;
37889;SDS011;23730;49.120;12.214;2022-07-29T13:58:54;7.82;;;2.47;;
37889;SDS011;23730;49.120;12.214;2022-07-29T14:03:56;4.28;;;2.00;;
37889;SDS011;23730;49.120;12.214;2022-07-29T14:08:58;9.65;;;2.50;;
37889;SDS011;23730;49.120;12.214;2022-07-29T14:14:01;6.35;;;3.38;;
37889;SDS011;23730;49.120;12.214;2022-07-29T14:19:03;8.82;;;2.30;;
37889;SDS011;23730;49.120;12.214;2022-07-29T14:24:05;5.63;;;2.25;;
37889;SDS011;23730;49.120;12.214;2022-07-29T14:29:22;5.85;;;1.88;;
37889;SDS011;23730;49.120;12.214;2022-07-29T14:34:38;17.65;;;2.67;;
37889;SDS011;23730;49.120;12.214;2022-07-29T14:39:40;8.43;;;1.60;;
37889;SDS011;23730;49.120;12.214;2022-07-29T14:44:43;5.43;;;2.50;;
37889;SDS011;23730;49.120;12.214;2022-07-29T14:49:47;7.03;;;2.97;;
37889;SDS011;23730;49.120;12.214;2022-07-29T14:54:49;5.43;;;2.05;;
37889;SDS011;23730;49.120;12.214;2022-07-29T14:59:51;4.97;;;2.30;;
37889;SDS011;23730;49.120;12.214;2022-07-29T15:04:53;4.53;;;2.20;;
37889;SDS011;23730;49.120;12.214;2022-07-29T15:09:55;6.93;;;2.00;;
37889;SDS011;23730;49.120;12.214;2022-07-29T15:15:00;5.15;;;1.88;;
37889;SDS011;23730;49.120;12.214;2022-07-29T15:20:03;7.22;;;2.30;;
37889;SDS011;23730;49.120;12.214;2022-07-29T15:25:06;4.20;;;1.80;;
37889;SDS011;23730;49.120;12.214;2022-07-29T15:30:09;4.65;;;2.00;;
37889;SDS011;23730;49.120;12.214;2022-07-29T15:35:32;5.65;;;2.00;;
37889;SDS011;23730;49.120;12.214;2022-07-29T15:40:40;6.90;;;2.40;;
37889;SDS011;23730;49.120;12.214;2022-07-29T15:45:44;6.30;;;2.60;;
37889;SDS011;23730;49.120;12.214;2022-07-29T15:51:06;6.13;;;2.67;;
37889;SDS011;23730;49.120;12.214;2022-07-29T15:56:08;6.55;;;2.13;;
37889;SDS011;23730;49.120;12.214;2022-07-29T16:01:10;6.20;;;2.40;;
37889;SDS011;23730;49.120;12.214;2022-07-29T16:06:13;6.32;;;2.67;;
37889;SDS011;23730;49.120;12.214;2022-07-29T16:11:15;10.13;;;3.15;;
37889;SDS011;23730;49.120;12.214;2022-07-29T16:16:17;6.85;;;2.70;;
37889;SDS011;23730;49.120;12.214;2022-07-29T16:21:19;6.80;;;2.25;;
37889;SDS011;23730;49.120;12.214;2022-07-29T16:26:23;4.70;;;2.10;;
37889;SDS011;23730;49.120;12.214;2022-07-29T16:31:25;4.38;;;1.70;;
37889;SDS011;23730;49.120;12.214;2022-07-29T16:36:28;4.10;;;1.50;;
37889;SDS011;23730;49.120;12.214;2022-07-29T16:41:30;7.75;;;1.48;;
37889;SDS011;23730;49.120;12.214;2022-07-29T16:46:33;4.32;;;1.40;;
37889;SDS011;23730;49.120;12.214;2022-07-29T16:51:39;6.10;;;2.50;;
37889;SDS011;23730;49.120;12.214;2022-07-29T16:56:42;6.80;;;2.50;;
37889;SDS011;23730;49.120;12.214;2022-07-29T17:01:44;5.15;;;2.47;;
37889;SDS011;23730;49.120;12.214;2022-07-29T17:06:47;6.10;;;2.60;;
37889;SDS011;23730;49.120;12.214;2022-07-29T17:11:50;8.32;;;2.95;;
37889;SDS011;23730;49.120;12.214;2022-07-29T17:16:57;8.63;;;3.10;;
37889;SDS011;23730;49.120;12.214;2022-07-29T17:22:03;5.85;;;2.70;;
37889;SDS011;23730;49.120;12.214;2022-07-29T17:27:18;6.70;;;3.15;;
37889;SDS011;23730;49.120;12.214;2022-07-29T17:32:21;7.63;;;3.10;;
37889;SDS011;23730;49.120;12.214;2022-07-29T17:37:23;8.80;;;3.17;;
37889;SDS011;23730;49.120;12.214;2022-07-29T17:42:25;6.13;;;3.13;;
37889;SDS011;23730;49.120;12.214;2022-07-29T17:47:27;9.65;;;3.20;;
37889;SDS011;23730;49.120;12.214;2022-07-29T17:52:29;7.22;;;3.47;;
37889;SDS011;23730;49.120;12.214;2022-07-29T17:57:31;7.93;;;3.42;;
37889;SDS011;23730;49.120;12.214;2022-07-29T18:02:34;7.18;;;3.58;;
37889;SDS011;23730;49.120;12.214;2022-07-29T18:07:38;6.85;;;3.33;;
37889;SDS011;23730;49.120;12.214;2022-07-29T18:12:40;7.38;;;2.97;;
37889;SDS011;23730;49.120;12.214;2022-07-29T18:17:42;7.45;;;4.10;;
37889;SDS011;23730;49.120;12.214;2022-07-29T18:22:58;10.02;;;3.60;;
37889;SDS011;23730;49.120;12.214;2022-07-29T18:28:01;10.07;;;3.53;;
37889;SDS011;23730;49.120;12.214;2022-07-29T18:33:04;7.50;;;4.05;;
37889;SDS011;23730;49.120;12.214;2022-07-29T18:38:24;10.75;;;4.80;;
37889;SDS011;23730;49.120;12.214;2022-07-29T18:43:26;10.57;;;4.47;;
37889;SDS011;23730;49.120;12.214;2022-07-29T18:48:28;9.07;;;5.05;;
37889;SDS011;23730;49.120;12.214;2022-07-29T18:53:33;9.15;;;4.78;;
37889;SDS011;23730;49.120;12.214;2022-07-29T18:58:37;9.43;;;4.70;;
37889;SDS011;23730;49.120;12.214;2022-07-29T19:03:39;9.32;;;5.00;;
37889;SDS011;23730;49.120;12.214;2022-07-29T19:08:41;8.88;;;5.25;;
37889;SDS011;23730;49.120;12.214;2022-07-29T19:13:43;11.15;;;5.50;;
37889;SDS011;23730;49.120;12.214;2022-07-29T19:18:45;9.93;;;5.68;;
37889;SDS011;23730;49.120;12.214;2022-07-29T19:23:49;9.90;;;5.20;;
37889;SDS011;23730;49.120;12.214;2022-07-29T19:29:06;9.75;;;6.07;;
37889;SDS011;23730;49.120;12.214;2022-07-29T19:34:08;9.82;;;6.15;;
37889;SDS011;23730;49.120;12.214;2022-07-29T19:39:10;9.65;;;6.13;;
37889;SDS011;23730;49.120;12.214;2022-07-29T19:44:12;9.95;;;6.07;;
37889;SDS011;23730;49.120;12.214;2022-07-29T19:49:15;12.00;;;6.70;;
37889;SDS011;23730;49.120;12.214;2022-07-29T19:54:17;9.57;;;6.32;;
37889;SDS011;23730;49.120;12.214;2022-07-29T19:59:19;10.60;;;6.28;;
37889;SDS011;23730;49.120;12.214;2022-07-29T20:04:24;9.50;;;6.60;;
37889;SDS011;23730;49.120;12.214;2022-07-29T20:09:27;10.30;;;6.40;;
37889;SDS011;23730;49.120;12.214;2022-07-29T20:14:30;11.60;;;6.18;;
37889;SDS011;23730;49.120;12.214;2022-07-29T20:19:32;11.57;;;5.75;;
